Time;durP1;ratioP1;P1;durP2;ratioP2;P2;SDS_P1;SDS_P2;PMS_P1;PMS_P2;Temp;Humidity;BMP_temperature;BMP_pressure;BME280_temperature;BME280_humidity;BME280_pressure;Samples;Min_cycle;Max_cycle;Signal;HPM_P1;HPM_P2
2023/02/09 00:00:47;;;;;;;43.60;17.65;;;4.20;75.70;;;;;;7397768;19;20591;-88
2023/02/09 00:03:15;;;;;;;43.95;18.17;;;4.20;76.00;;;;;;7375877;19;20015;-87
2023/02/09 00:05:44;;;;;;;44.50;17.50;;;4.20;77.00;;;;;;7377920;19;20081;-89
2023/02/09 00:08:13;;;;;;;39.83;18.08;;;4.20;76.60;;;;;;7375199;19;20039;-88
2023/02/09 00:10:41;;;;;;;52.33;19.05;;;4.20;76.20;;;;;;7374993;19;20086;-87
2023/02/09 00:13:22;;;;;;;46.33;19.55;;;4.20;75.80;;;;;;7376937;19;20039;-87
2023/02/09 00:15:52;;;;;;;54.67;20.40;;;4.10;75.80;;;;;;7399618;19;20020;-87
2023/02/09 00:18:21;;;;;;;58.00;19.60;;;4.10;76.00;;;;;;7379594;19;20388;-88
2023/02/09 00:20:57;;;;;;;51.08;19.23;;;4.00;76.00;;;;;;7380059;19;20090;-88
2023/02/09 00:23:26;;;;;;;41.97;17.55;;;4.00;76.10;;;;;;7376329;19;20019;-88
2023/02/09 00:25:55;;;;;;;44.33;17.92;;;3.90;76.30;;;;;;7375079;19;20125;-88
2023/02/09 00:28:26;;;;;;;47.05;18.13;;;4.00;76.60;;;;;;7373188;19;20113;-88
2023/02/09 00:30:55;;;;;;;;;;;3.90;76.60;;;;;;7389159;19;20106;-88
2023/02/09 00:33:25;;;;;;;41.75;16.05;;;3.90;76.30;;;;;;7370632;19;19950;-87
2023/02/09 00:35:54;;;;;;;47.05;15.77;;;3.90;76.10;;;;;;7369691;19;20054;-86
2023/02/09 00:38:22;;;;;;;43.47;16.30;;;3.90;76.30;;;;;;7369255;19;20039;-86
2023/02/09 00:40:51;;;;;;;51.53;16.77;;;3.90;76.30;;;;;;7370656;19;20066;-86
2023/02/09 00:43:20;;;;;;;47.65;16.85;;;3.90;76.60;;;;;;7371759;19;20029;-86
2023/02/09 00:45:51;;;;;;;50.70;17.98;;;3.90;76.60;;;;;;7393337;19;20110;-86
2023/02/09 00:48:20;;;;;;;45.78;17.83;;;3.90;76.40;;;;;;7370640;19;20023;-86
2023/02/09 00:50:48;;;;;;;46.53;18.13;;;3.90;76.40;;;;;;7369862;19;20014;-85
2023/02/09 00:53:17;;;;;;;45.42;17.17;;;3.90;76.20;;;;;;7371628;19;20021;-86
2023/02/09 00:55:46;;;;;;;40.08;16.20;;;3.80;76.30;;;;;;7376504;19;20086;-85
2023/02/09 00:58:15;;;;;;;52.53;17.85;;;3.80;76.30;;;;;;7373574;19;20090;-85
2023/02/09 01:00:43;;;;;;;35.97;16.27;;;3.80;76.60;;;;;;7256430;19;2809232;-87
2023/02/09 01:03:14;;;;;;;35.83;15.77;;;3.80;76.80;;;;;;7380842;19;20073;-87
2023/02/09 01:05:43;;;;;;;;;;;3.80;76.70;;;;;;7394134;19;20014;-83
2023/02/09 01:08:12;;;;;;;36.67;15.25;;;3.80;76.60;;;;;;7400729;19;19918;-85
2023/02/09 01:10:41;;;;;;;46.70;16.55;;;3.80;76.50;;;;;;7390718;19;20019;-86
2023/02/09 01:13:10;;;;;;;40.88;16.17;;;3.80;76.70;;;;;;7392098;19;20022;-85
2023/02/09 01:15:41;;;;;;;54.70;17.63;;;3.70;76.50;;;;;;7407872;19;20011;-85
2023/02/09 01:18:10;;;;;;;39.70;16.73;;;3.70;76.80;;;;;;7386047;19;20054;-85
2023/02/09 01:20:42;;;;;;;37.83;15.77;;;3.70;76.90;;;;;;7373785;19;20836;-85
2023/02/09 01:23:11;;;;;;;39.17;16.60;;;3.70;77.10;;;;;;7373092;19;20019;-85
2023/02/09 01:25:39;;;;;;;46.25;16.88;;;3.70;77.00;;;;;;7371009;19;20082;-84
2023/02/09 01:28:08;;;;;;;47.50;17.75;;;3.70;76.90;;;;;;7372439;19;20094;-85
2023/02/09 01:30:37;;;;;;;36.88;15.80;;;3.70;77.50;;;;;;7393499;19;20052;-85
2023/02/09 01:33:05;;;;;;;43.95;16.48;;;3.70;76.90;;;;;;7370935;19;20022;-86
2023/02/09 01:35:34;;;;;;;42.50;16.77;;;3.80;77.10;;;;;;7371305;19;20047;-86
2023/02/09 01:38:05;;;;;;;46.58;16.75;;;3.70;77.50;;;;;;7371027;19;20015;-86
2023/02/09 01:40:34;;;;;;;;;;;3.70;77.40;;;;;;7374728;19;20498;-85
2023/02/09 01:43:02;;;;;;;32.92;13.88;;;3.70;76.90;;;;;;7369977;19;19922;-84
2023/02/09 01:45:35;;;;;;;49.72;16.02;;;3.60;76.60;;;;;;7389691;19;20021;-85
2023/02/09 01:48:05;;;;;;;47.95;16.70;;;3.50;77.00;;;;;;7371540;19;20579;-84
2023/02/09 01:50:38;;;;;;;37.45;15.50;;;3.50;77.10;;;;;;7373634;19;20022;-84
2023/02/09 01:53:10;;;;;;;40.22;15.85;;;3.50;77.30;;;;;;7378249;19;20026;-83
2023/02/09 01:55:46;;;;;;;40.70;16.90;;;3.50;77.50;;;;;;7380616;19;20093;-85
2023/02/09 01:58:18;;;;;;;38.10;15.80;;;3.50;77.50;;;;;;7379921;19;20370;-83
2023/02/09 02:00:48;;;;;;;47.28;16.48;;;3.50;77.50;;;;;;7399120;19;20130;-84
2023/02/09 02:03:20;;;;;;;31.13;16.00;;;3.50;77.40;;;;;;7377238;19;20129;-83
2023/02/09 02:05:55;;;;;;;41.88;14.93;;;3.50;77.20;;;;;;7378340;19;20090;-83
2023/02/09 02:08:32;;;;;;;39.63;16.02;;;3.50;77.20;;;;;;7376760;19;20107;-82
2023/02/09 02:11:01;;;;;;;42.45;15.63;;;3.50;77.20;;;;;;7373052;19;20646;-83
2023/02/09 02:13:29;;;;;;;41.92;16.15;;;3.50;77.60;;;;;;7374440;19;20522;-83
2023/02/09 02:16:03;;;;;;;43.70;17.33;;;3.60;77.70;;;;;;7399683;19;20017;-84
2023/02/09 02:18:51;;;;;;;33.55;16.00;;;3.60;77.60;;;;;;7377255;19;20054;-84
2023/02/09 02:21:52;;;;;;;41.47;16.48;;;3.50;77.20;;;;;;7374003;19;20068;-83
2023/02/09 02:24:54;;;;;;;37.25;15.48;;;3.50;77.10;;;;;;7374323;19;20421;-83
2023/02/09 02:27:30;;;;;;;;;;;3.50;76.90;;;;;;7378058;19;20050;-83
2023/02/09 02:30:36;;;;;;;38.72;14.73;;;3.50;77.20;;;;;;7382965;19;19918;-84
2023/02/09 02:33:30;;;;;;;36.38;13.68;;;3.40;77.10;;;;;;7380794;19;20389;-83
2023/02/09 02:36:07;;;;;;;41.88;16.35;;;3.30;77.30;;;;;;7377114;19;20018;-83
2023/02/09 02:38:40;;;;;;;38.25;14.85;;;3.30;77.70;;;;;;7373891;19;20015;-84
2023/02/09 02:41:15;;;;;;;34.83;14.75;;;3.30;77.60;;;;;;7376435;19;20082;-84
2023/02/09 02:43:54;;;;;;;38.33;14.82;;;3.20;77.70;;;;;;7374750;19;20018;-84
2023/02/09 02:46:32;;;;;;;40.20;15.48;;;3.20;77.70;;;;;;7375794;19;20067;-82
2023/02/09 02:49:11;;;;;;;39.42;16.20;;;3.20;78.20;;;;;;7385422;19;20466;-83
2023/02/09 02:51:42;;;;;;;47.45;17.02;;;3.20;78.60;;;;;;7396623;19;20022;-83
2023/02/09 02:54:14;;;;;;;37.45;15.75;;;3.20;78.60;;;;;;7376518;19;20422;-84
2023/02/09 02:56:45;;;;;;;47.15;18.05;;;3.30;78.50;;;;;;7377158;19;20858;-84
2023/02/09 02:59:19;;;;;;;44.88;17.17;;;3.30;78.60;;;;;;7377317;19;20490;-84
2023/02/09 03:02:00;;;;;;;48.97;19.02;;;3.30;78.10;;;;;;7378196;19;20082;-83
2023/02/09 03:04:32;;;;;;;;;;;3.20;77.70;;;;;;7376779;19;20156;-82
2023/02/09 03:07:01;;;;;;;42.72;15.27;;;3.20;78.00;;;;;;7383596;19;19930;-81
2023/02/09 03:09:29;;;;;;;47.60;16.58;;;3.10;78.20;;;;;;7397272;19;20026;-82
2023/02/09 03:12:04;;;;;;;40.05;16.00;;;3.10;78.30;;;;;;7374113;19;20017;-82
2023/02/09 03:14:43;;;;;;;41.40;16.88;;;3.00;78.70;;;;;;7373906;19;20991;-82
2023/02/09 03:17:25;;;;;;;41.97;17.05;;;3.10;79.30;;;;;;7374424;19;20014;-82
2023/02/09 03:20:05;;;;;;;46.58;16.73;;;3.10;79.20;;;;;;7375335;19;21576;-82
2023/02/09 03:22:38;;;;;;;43.13;14.70;;;3.10;78.90;;;;;;7374185;19;20078;-82
2023/02/09 03:25:11;;;;;;;45.05;15.50;;;3.10;78.60;;;;;;7372724;19;20025;-82
2023/02/09 03:27:45;;;;;;;35.45;14.88;;;3.10;79.00;;;;;;7396306;19;20018;-83
2023/02/09 03:30:16;;;;;;;39.95;16.42;;;3.10;78.20;;;;;;7373825;19;20105;-83
2023/02/09 03:32:48;;;;;;;37.20;16.00;;;3.10;78.20;;;;;;7375506;19;20018;-83
2023/02/09 03:35:21;;;;;;;37.60;15.98;;;3.10;78.40;;;;;;7375828;19;20082;-83
2023/02/09 03:37:50;;;;;;;37.53;15.23;;;3.10;78.20;;;;;;7376282;19;20048;-82
2023/02/09 03:40:19;;;;;;;36.15;14.57;;;3.10;78.60;;;;;;7377071;19;20026;-82
2023/02/09 03:42:47;;;;;;;33.00;15.30;;;3.10;78.60;;;;;;7392678;19;20121;-82
2023/02/09 03:45:13;;;;;;;58.35;15.73;;;3.00;79.00;;;;;;7374110;19;20014;-83
2023/02/09 03:47:42;;;;;;;36.38;15.02;;;3.10;78.70;;;;;;7375088;19;20013;-83
2023/02/09 03:50:11;;;;;;;31.95;14.80;;;3.00;78.20;;;;;;7379658;19;20514;-83
2023/02/09 03:52:43;;;;;;;36.42;15.27;;;3.10;78.30;;;;;;7379171;19;20125;-82
2023/02/09 03:55:11;;;;;;;;;;;3.10;78.30;;;;;;7371445;19;20014;-81
2023/02/09 03:57:40;;;;;;;42.47;13.70;;;3.10;78.30;;;;;;7392796;19;19999;-81
2023/02/09 04:00:11;;;;;;;30.38;13.75;;;3.10;78.10;;;;;;7372369;19;20636;-82
2023/02/09 04:02:40;;;;;;;33.58;13.55;;;3.00;78.20;;;;;;7373301;19;20039;-82
2023/02/09 04:05:09;;;;;;;40.58;15.32;;;3.00;78.30;;;;;;7372813;19;20105;-83
2023/02/09 04:07:38;;;;;;;41.67;16.27;;;2.90;78.40;;;;;;7378486;19;20026;-85
2023/02/09 04:10:10;;;;;;;42.15;16.52;;;2.90;78.60;;;;;;7396795;19;20022;-82
2023/02/09 04:12:39;;;;;;;43.13;16.80;;;2.80;78.60;;;;;;7413571;19;20317;-84
2023/02/09 04:15:08;;;;;;;43.42;16.35;;;2.80;78.70;;;;;;7373956;19;20416;-83
2023/02/09 04:17:37;;;;;;;44.70;17.08;;;2.80;79.80;;;;;;7371133;19;20090;-83
2023/02/09 04:20:06;;;;;;;36.95;16.23;;;2.80;79.20;;;;;;7369606;19;20025;-82
2023/02/09 04:22:35;;;;;;;36.35;14.88;;;2.80;79.40;;;;;;7373129;19;20011;-82
2023/02/09 04:25:04;;;;;;;35.90;14.23;;;2.80;79.40;;;;;;7371590;19;20407;-82
2023/02/09 04:27:35;;;;;;;37.03;15.40;;;2.80;79.40;;;;;;7394392;19;20110;-83
2023/02/09 04:30:04;;;;;;;36.80;14.60;;;2.80;79.10;;;;;;7373426;19;20115;-83
2023/02/09 04:32:33;;;;;;;37.35;14.57;;;2.80;79.10;;;;;;7373339;19;20023;-84
2023/02/09 04:35:02;;;;;;;33.42;14.27;;;2.80;79.10;;;;;;7372491;19;20147;-83
2023/02/09 04:37:30;;;;;;;37.92;13.77;;;2.80;79.10;;;;;;7373208;19;20082;-84
2023/02/09 04:39:59;;;;;;;39.13;14.07;;;2.80;79.20;;;;;;7393731;19;20059;-83
2023/02/09 04:42:27;;;;;;;38.38;14.73;;;2.80;79.20;;;;;;7372232;19;20113;-83
2023/02/09 04:44:59;;;;;;;38.53;14.57;;;2.90;79.20;;;;;;7374241;19;20085;-84
2023/02/09 04:47:27;;;;;;;;;;;2.90;79.10;;;;;;7374822;19;20460;-84
2023/02/09 04:49:56;;;;;;;28.55;12.10;;;2.90;78.50;;;;;;7375542;19;19925;-82
2023/02/09 04:52:24;;;;;;;36.85;13.20;;;2.90;78.20;;;;;;7373119;19;20089;-82
2023/02/09 04:54:53;;;;;;;29.60;13.05;;;2.90;78.20;;;;;;7396832;19;20086;-82
2023/02/09 05:00:06;;;;;;;34.38;13.35;;;2.90;79.00;;;;;;7374957;19;20026;-84
2023/02/09 05:02:35;;;;;;;37.22;12.80;;;2.90;78.30;;;;;;7374347;19;20109;-84
2023/02/09 05:05:04;;;;;;;33.08;14.32;;;2.90;78.00;;;;;;7368867;19;20101;-83
2023/02/09 05:07:32;;;;;;;28.02;12.77;;;2.90;78.30;;;;;;7369504;19;20022;-84
2023/02/09 05:10:01;;;;;;;38.28;14.30;;;2.90;78.60;;;;;;7377187;19;20086;-81
2023/02/09 05:12:30;;;;;;;37.03;13.23;;;2.80;78.60;;;;;;7394790;19;20086;-83
2023/02/09 05:14:58;;;;;;;33.42;12.50;;;2.90;78.80;;;;;;7372246;19;20022;-84
2023/02/09 05:17:30;;;;;;;26.92;12.13;;;2.90;78.70;;;;;;7373264;19;20014;-83
2023/02/09 05:19:58;;;;;;;;;;;2.90;78.20;;;;;;7374235;19;20078;-83
2023/02/09 05:22:27;;;;;;;36.63;12.38;;;2.90;78.20;;;;;;7377138;19;20249;-84
2023/02/09 05:24:55;;;;;;;31.30;11.48;;;2.60;78.80;;;;;;7393088;19;20430;-84
2023/02/09 05:27:24;;;;;;;31.95;13.02;;;2.40;79.30;;;;;;7372007;19;20090;-83
2023/02/09 05:29:53;;;;;;;31.27;12.75;;;2.30;80.20;;;;;;7369859;19;20014;-83
2023/02/09 05:32:21;;;;;;;31.40;12.93;;;2.30;80.40;;;;;;7372240;19;20082;-85
2023/02/09 05:34:53;;;;;;;38.42;13.27;;;2.40;80.50;;;;;;7373135;19;20134;-85
2023/02/09 05:37:21;;;;;;;;;;;2.40;80.30;;;;;;7378240;19;20022;-85
2023/02/09 05:39:50;;;;;;;34.08;11.52;;;2.50;80.20;;;;;;7397769;19;19994;-84
2023/02/09 05:42:19;;;;;;;35.45;13.05;;;2.50;79.90;;;;;;7373535;19;20026;-84
2023/02/09 05:44:50;;;;;;;32.22;12.85;;;2.60;80.00;;;;;;7374237;19;20051;-84
2023/02/09 05:47:21;;;;;;;32.92;13.80;;;2.60;80.10;;;;;;7373382;19;20010;-83
2023/02/09 05:49:53;;;;;;;39.28;14.07;;;2.70;80.10;;;;;;7372355;19;20109;-84
2023/02/09 05:52:22;;;;;;;33.83;13.07;;;2.70;80.00;;;;;;7371652;19;20082;-84
2023/02/09 05:54:51;;;;;;;30.83;14.27;;;2.80;80.20;;;;;;7391864;19;20021;-85
2023/02/09 05:57:20;;;;;;;31.73;13.50;;;2.80;80.10;;;;;;7371076;19;20019;-85
2023/02/09 05:59:49;;;;;;;32.08;13.48;;;2.80;79.80;;;;;;7368373;19;20093;-85
2023/02/09 06:02:17;;;;;;;28.92;12.65;;;2.70;80.10;;;;;;7372416;19;20014;-85
2023/02/09 06:04:46;;;;;;;42.63;13.82;;;2.70;79.60;;;;;;7370438;19;20364;-84
2023/02/09 06:07:17;;;;;;;36.08;13.43;;;2.70;79.40;;;;;;7372480;19;20497;-85
2023/02/09 06:09:46;;;;;;;33.20;12.32;;;2.60;79.50;;;;;;7392168;19;20095;-84
2023/02/09 06:12:15;;;;;;;40.85;13.18;;;2.70;80.00;;;;;;7371657;19;20019;-84
2023/02/09 06:14:44;;;;;;;34.40;12.25;;;2.70;80.00;;;;;;7374226;19;20077;-85
2023/02/09 06:17:12;;;;;;;28.33;12.48;;;2.70;79.80;;;;;;7373900;19;20043;-84
2023/02/09 06:19:41;;;;;;;34.45;13.18;;;2.70;79.80;;;;;;7373088;19;20043;-83
2023/02/09 06:22:10;;;;;;;35.72;15.10;;;2.80;79.60;;;;;;7369093;19;20018;-83
2023/02/09 06:24:41;;;;;;;39.33;13.27;;;2.80;79.50;;;;;;7390286;19;20018;-83
2023/02/09 06:27:09;;;;;;;;;;;2.80;79.30;;;;;;7368856;19;20421;-83
2023/02/09 06:29:38;;;;;;;27.98;11.43;;;2.80;79.10;;;;;;7367278;19;20001;-83
2023/02/09 06:32:07;;;;;;;38.75;12.48;;;2.80;78.90;;;;;;7369219;19;20045;-84
2023/02/09 06:34:36;;;;;;;33.20;12.70;;;2.70;78.90;;;;;;7370358;19;20101;-84
2023/02/09 06:37:04;;;;;;;30.88;13.32;;;2.70;79.30;;;;;;7371452;19;20098;-84
2023/02/09 06:39:33;;;;;;;38.85;13.15;;;2.70;79.60;;;;;;7397936;19;20089;-84
2023/02/09 06:42:05;;;;;;;40.80;13.95;;;2.70;79.20;;;;;;7376988;19;20021;-84
2023/02/09 06:44:33;;;;;;;82.20;15.50;;;2.70;79.60;;;;;;7377512;19;20010;-84
2023/02/09 06:47:02;;;;;;;42.33;13.88;;;2.60;79.60;;;;;;7376139;19;20018;-84
2023/02/09 06:49:31;;;;;;;41.90;15.10;;;2.70;79.60;;;;;;7376896;19;20014;-84
2023/02/09 06:51:59;;;;;;;49.50;15.82;;;2.60;79.70;;;;;;7396383;19;20117;-84
2023/02/09 06:54:28;;;;;;;28.98;12.40;;;2.60;79.40;;;;;;7374796;19;20512;-85
2023/02/09 06:56:57;;;;;;;32.80;13.30;;;2.60;79.90;;;;;;7375994;19;20022;-83
2023/02/09 06:59:28;;;;;;;42.33;14.40;;;2.60;80.00;;;;;;7377666;19;20105;-85
2023/02/09 07:01:57;;;;;;;31.20;12.80;;;2.60;80.00;;;;;;7375307;19;20014;-86
2023/02/09 07:04:26;;;;;;;31.17;13.30;;;2.70;80.10;;;;;;7375308;19;20010;-84
2023/02/09 07:06:55;;;;;;;29.00;14.18;;;2.70;80.10;;;;;;7395673;19;20467;-84
2023/02/09 07:09:23;;;;;;;35.80;14.50;;;2.70;79.90;;;;;;7373433;19;20439;-84
2023/02/09 07:11:52;;;;;;;35.80;14.23;;;2.70;79.80;;;;;;7373187;19;20430;-85
2023/02/09 07:14:21;;;;;;;33.08;14.25;;;2.60;79.50;;;;;;7374285;19;20022;-83
2023/02/09 07:16:52;;;;;;;38.35;14.80;;;2.70;79.20;;;;;;7378114;19;20572;-84
2023/02/09 07:19:21;;;;;;;;;;;2.60;78.90;;;;;;7377949;19;20019;-83
2023/02/09 07:21:51;;;;;;;32.45;14.43;;;2.70;79.10;;;;;;7398164;19;19932;-83
2023/02/09 07:24:20;;;;;;;45.95;14.57;;;2.60;79.50;;;;;;7375671;19;20011;-84
2023/02/09 07:26:48;;;;;;;37.85;14.10;;;2.60;79.80;;;;;;7371198;19;20102;-83
2023/02/09 07:29:17;;;;;;;36.95;13.60;;;2.60;79.50;;;;;;7373358;19;20015;-85
2023/02/09 07:31:46;;;;;;;44.67;14.45;;;2.60;79.20;;;;;;7374680;19;20085;-84
2023/02/09 07:34:18;;;;;;;38.08;14.88;;;2.60;79.40;;;;;;7373506;19;20089;-84
2023/02/09 07:36:46;;;;;;;41.40;15.57;;;2.60;79.20;;;;;;7395687;19;20014;-84
2023/02/09 07:39:15;;;;;;;38.25;14.70;;;2.50;79.30;;;;;;7372600;19;20470;-84
2023/02/09 07:41:44;;;;;;;33.03;13.85;;;2.60;79.70;;;;;;7373757;19;20499;-84
2023/02/09 07:44:12;;;;;;;38.80;14.75;;;2.60;79.80;;;;;;7373460;19;20090;-84
2023/02/09 07:46:41;;;;;;;39.40;15.40;;;2.60;80.00;;;;;;7373938;19;20089;-84
2023/02/09 07:49:10;;;;;;;43.50;15.05;;;2.60;80.00;;;;;;7371947;19;20122;-85
2023/02/09 07:51:41;;;;;;;40.08;15.52;;;2.70;80.30;;;;;;7396986;19;20093;-85
2023/02/09 07:54:13;;;;;;;44.92;16.88;;;2.70;80.20;;;;;;7373889;19;20019;-87
2023/02/09 07:56:42;;;;;;;81.72;23.65;;;2.70;80.10;;;;;;7381949;19;20601;-85
2023/02/09 07:59:12;;;;;;;58.60;18.52;;;2.80;80.20;;;;;;7378315;19;20058;-86
2023/02/09 08:01:41;;;;;;;35.90;15.65;;;2.80;80.00;;;;;;7373056;19;21135;-88
2023/02/09 08:04:10;;;;;;;41.20;14.70;;;2.80;80.10;;;;;;7369015;19;20028;-83
2023/02/09 08:06:44;;;;;;;42.90;16.05;;;2.70;81.30;;;;;;7395972;19;20019;-88
2023/02/09 08:09:14;;;;;;;38.38;15.93;;;2.70;81.00;;;;;;7386340;19;20022;-87
2023/02/09 08:11:48;;;;;;;34.22;14.50;;;2.70;81.40;;;;;;7382159;19;20022;-81
2023/02/09 08:14:19;;;;;;;47.00;16.48;;;2.80;82.30;;;;;;7372163;19;20350;-82
2023/02/09 08:16:49;;;;;;;41.47;16.08;;;3.00;81.20;;;;;;7369292;19;20018;-78
2023/02/09 08:19:28;;;;;;;46.15;17.02;;;3.10;81.10;;;;;;7369820;19;20333;-78
2023/02/09 08:21:59;;;;;;;35.50;16.00;;;3.10;80.70;;;;;;7389782;19;20162;-78
2023/02/09 08:24:28;;;;;;;41.30;16.67;;;3.20;80.30;;;;;;7366769;19;20529;-78
2023/02/09 08:26:57;;;;;;;43.47;17.63;;;3.30;80.50;;;;;;7368970;19;20032;-78
2023/02/09 08:29:25;;;;;;;44.58;17.13;;;3.40;80.60;;;;;;7368604;19;20022;-78
2023/02/09 08:31:54;;;;;;;40.72;17.23;;;3.40;80.20;;;;;;7369895;19;20024;-80
2023/02/09 08:34:23;;;;;;;50.17;18.85;;;3.40;80.30;;;;;;7372715;19;20088;-81
2023/02/09 08:36:52;;;;;;;44.05;18.67;;;3.40;80.30;;;;;;7389800;19;20605;-79
2023/02/09 08:39:23;;;;;;;46.22;18.33;;;3.50;80.90;;;;;;7370592;19;20039;-86
2023/02/09 08:41:52;;;;;;;48.88;18.00;;;3.50;80.80;;;;;;7373865;19;20107;-79
2023/02/09 08:44:21;;;;;;;48.20;17.02;;;3.60;80.60;;;;;;7370391;19;20018;-78
2023/02/09 08:46:49;;;;;;;46.85;18.50;;;3.70;80.20;;;;;;7369780;19;20086;-78
2023/02/09 08:49:18;;;;;;;49.55;18.08;;;3.80;79.90;;;;;;7369412;19;20023;-78
2023/02/09 08:51:47;;;;;;;45.72;18.52;;;3.90;79.80;;;;;;7393278;19;20027;-77
2023/02/09 08:54:15;;;;;;;42.22;18.50;;;4.00;80.00;;;;;;7370926;19;20097;-78
2023/02/09 08:56:47;;;;;;;46.15;19.08;;;4.00;80.20;;;;;;7368988;19;20031;-79
2023/02/09 08:59:15;;;;;;;;;;;4.10;80.40;;;;;;7369045;19;20010;-78
2023/02/09 09:01:44;;;;;;;44.70;17.98;;;4.20;80.40;;;;;;7371974;19;19925;-78
2023/02/09 09:04:12;;;;;;;47.45;19.83;;;4.30;80.00;;;;;;7373193;19;20018;-79
2023/02/09 09:06:41;;;;;;;51.05;19.25;;;4.30;79.80;;;;;;7394113;19;20018;-81
2023/02/09 09:09:10;;;;;;;54.35;19.55;;;4.40;79.70;;;;;;7371895;19;20025;-79
2023/02/09 09:11:41;;;;;;;56.92;19.73;;;4.40;79.50;;;;;;7369469;19;20062;-80
2023/02/09 09:14:13;;;;;;;47.67;19.30;;;4.50;80.00;;;;;;7370779;19;20117;-79
2023/02/09 09:16:41;;;;;;;;;;;4.50;80.10;;;;;;7370721;19;20010;-78
2023/02/09 09:19:10;;;;;;;45.38;18.27;;;4.50;79.80;;;;;;7373827;19;19951;-81
2023/02/09 09:21:38;;;;;;;47.80;18.98;;;4.50;79.70;;;;;;7395641;19;20071;-79
2023/02/09 09:24:07;;;;;;;58.95;21.08;;;4.60;79.80;;;;;;7371730;19;20011;-80
2023/02/09 09:26:36;;;;;;;61.67;20.13;;;4.60;79.60;;;;;;7368667;19;20023;-81
2023/02/09 09:29:05;;;;;;;48.22;20.30;;;4.70;79.50;;;;;;7367423;19;20014;-80
2023/02/09 09:31:37;;;;;;;53.92;21.60;;;4.80;79.50;;;;;;7369490;19;20015;-82
2023/02/09 09:34:05;;;;;;;;;;;4.90;79.60;;;;;;7370244;19;20102;-78
2023/02/09 09:36:34;;;;;;;50.17;20.83;;;4.90;79.60;;;;;;7388677;19;19926;-77
2023/02/09 09:39:03;;;;;;;52.83;20.58;;;5.00;79.60;;;;;;7365299;19;20466;-79
2023/02/09 09:41:35;;;;;;;51.40;21.92;;;5.10;79.50;;;;;;7368711;19;20007;-78
2023/02/09 09:44:05;;;;;;;50.40;19.50;;;5.20;79.40;;;;;;7369184;19;20018;-81
2023/02/09 09:46:41;;;;;;;48.53;20.10;;;5.20;80.20;;;;;;7367063;19;20090;-80
2023/02/09 09:49:19;;;;;;;54.63;21.33;;;5.20;78.80;;;;;;7370958;19;20022;-79
2023/02/09 09:51:51;;;;;;;53.85;22.40;;;5.30;79.00;;;;;;7389294;19;20043;-79
2023/02/09 09:54:22;;;;;;;;;;;5.40;79.30;;;;;;7367923;19;20090;-82
2023/02/09 09:56:52;;;;;;;49.58;18.73;;;5.50;79.20;;;;;;7366963;19;19991;-81
2023/02/09 09:59:23;;;;;;;43.20;19.53;;;5.50;78.80;;;;;;7369949;19;20027;-81
2023/02/09 10:01:56;;;;;;;50.22;19.33;;;5.60;78.80;;;;;;7368777;19;21111;-80
2023/02/09 10:04:25;;;;;;;54.17;20.48;;;5.60;78.70;;;;;;7365838;19;20014;-78
2023/02/09 10:07:01;;;;;;;48.22;20.73;;;5.70;78.80;;;;;;7389214;19;20014;-79
2023/02/09 10:09:41;;;;;;;46.25;20.88;;;5.70;78.90;;;;;;7365464;19;20022;-77
2023/02/09 10:12:24;;;;;;;53.03;23.83;;;5.80;78.90;;;;;;7369114;19;20023;-79
2023/02/09 10:14:53;;;;;;;50.47;21.40;;;5.80;79.10;;;;;;7374321;19;20319;-79
2023/02/09 10:17:24;;;;;;;49.50;21.08;;;5.90;79.20;;;;;;7372773;19;20032;-79
2023/02/09 10:20:03;;;;;;;63.67;21.63;;;5.90;79.00;;;;;;7374977;19;20102;-79
2023/02/09 10:22:32;;;;;;;48.78;21.58;;;6.00;78.90;;;;;;7374127;19;20384;-79
2023/02/09 10:25:01;;;;;;;58.08;22.33;;;6.10;78.80;;;;;;7383254;19;20015;-80
2023/02/09 10:27:32;;;;;;;47.75;21.70;;;6.10;79.00;;;;;;7395970;19;20041;-80
2023/02/09 10:30:23;;;;;;;54.63;20.65;;;6.10;78.90;;;;;;7377115;19;20018;-80
2023/02/09 10:32:55;;;;;;;45.50;16.48;;;6.20;78.80;;;;;;7373457;19;20025;-81
2023/02/09 10:35:27;;;;;;;56.63;21.70;;;6.30;78.20;;;;;;7376076;19;20098;-83
2023/02/09 10:38:02;;;;;;;50.08;21.77;;;6.30;78.50;;;;;;7371696;19;20105;-83
2023/02/09 10:40:34;;;;;;;58.17;23.30;;;6.30;77.90;;;;;;7373876;19;20018;-82
2023/02/09 10:43:05;;;;;;;54.75;21.55;;;6.40;77.50;;;;;;7375400;19;20033;-81
2023/02/09 10:45:40;;;;;;;49.88;21.65;;;6.40;77.50;;;;;;7396594;19;20353;-82
2023/02/09 10:48:19;;;;;;;50.00;21.13;;;6.40;77.70;;;;;;7374854;19;20029;-82
2023/02/09 10:50:55;;;;;;;43.58;19.38;;;6.40;77.30;;;;;;7376514;19;20014;-82
2023/02/09 10:53:27;;;;;;;60.10;18.88;;;6.40;76.40;;;;;;7373818;19;20043;-82
2023/02/09 10:56:03;;;;;;;48.00;19.00;;;6.40;76.20;;;;;;7379078;19;20102;-84
2023/02/09 10:58:35;;;;;;;45.40;17.85;;;6.40;76.30;;;;;;7387127;19;20018;-82
2023/02/09 11:01:15;;;;;;;52.80;18.25;;;6.50;76.00;;;;;;7388369;19;20006;-81
2023/02/09 11:04:00;;;;;;;40.80;18.27;;;6.50;76.00;;;;;;7401767;19;20039;-82
2023/02/09 11:06:34;;;;;;;51.65;19.80;;;6.50;76.20;;;;;;7377310;19;20018;-82
2023/02/09 11:09:08;;;;;;;52.08;19.92;;;6.60;76.20;;;;;;7376280;19;20471;-83
2023/02/09 11:11:39;;;;;;;46.17;18.73;;;6.60;76.90;;;;;;7377656;19;20070;-82
2023/02/09 11:14:13;;;;;;;47.50;20.60;;;6.60;76.50;;;;;;7384481;19;20010;-83
2023/02/09 11:17:17;;;;;;;44.42;19.08;;;6.60;76.30;;;;;;7385346;19;20019;-83
2023/02/09 11:20:17;;;;;;;53.22;19.33;;;6.70;76.30;;;;;;7381492;19;20909;-83
2023/02/09 11:23:08;;;;;;;39.58;18.40;;;6.70;76.10;;;;;;7375753;19;20031;-83
2023/02/09 11:25:42;;;;;;;43.22;19.25;;;6.70;76.00;;;;;;7374486;19;20033;-83
2023/02/09 11:28:39;;;;;;;39.42;18.67;;;6.80;75.80;;;;;;7373076;19;20101;-83
2023/02/09 11:31:40;;;;;;;47.33;19.45;;;6.80;75.50;;;;;;7377567;19;20022;-83
2023/02/09 11:34:20;;;;;;;47.88;18.58;;;6.80;74.90;;;;;;7377008;19;20397;-82
2023/02/09 11:37:02;;;;;;;46.45;19.02;;;6.80;74.50;;;;;;7399692;19;20026;-83
2023/02/09 11:39:42;;;;;;;48.42;18.27;;;6.90;75.10;;;;;;7374317;19;20031;-83
2023/02/09 11:45:02;;;;;;;44.50;18.77;;;7.00;74.40;;;;;;7375596;19;20010;-83
2023/02/09 11:47:34;;;;;;;50.17;18.67;;;7.00;74.10;;;;;;7375237;19;20171;-83
2023/02/09 11:50:07;;;;;;;51.75;19.77;;;7.00;73.40;;;;;;7377832;19;20011;-83
2023/02/09 11:52:41;;;;;;;40.30;19.60;;;7.10;73.60;;;;;;7375988;19;20078;-83
2023/02/09 11:55:24;;;;;;;47.25;19.33;;;7.10;74.30;;;;;;7376157;19;20011;-82
2023/02/09 11:58:00;;;;;;;44.88;19.65;;;7.10;74.30;;;;;;7401201;19;20110;-83
2023/02/09 12:00:34;;;;;;;42.13;18.85;;;7.20;73.80;;;;;;7378775;19;20360;-83
2023/02/09 12:03:10;;;;;;;42.78;18.58;;;7.20;73.20;;;;;;7379766;19;20018;-82
2023/02/09 12:05:40;;;;;;;45.65;17.27;;;7.30;72.10;;;;;;7380056;19;20015;-83
2023/02/09 12:08:30;;;;;;;44.67;19.17;;;7.30;70.80;;;;;;7376756;19;20034;-83
2023/02/09 12:11:28;;;;;;;45.75;18.80;;;7.30;70.80;;;;;;7378781;19;20580;-83
2023/02/09 12:14:14;;;;;;;46.88;18.50;;;7.40;71.60;;;;;;7380094;19;20097;-83
2023/02/09 12:16:48;;;;;;;44.58;18.73;;;7.40;71.70;;;;;;7377628;19;20074;-83
2023/02/09 12:19:37;;;;;;;40.42;17.67;;;7.50;70.90;;;;;;7374129;19;20021;-83
2023/02/09 12:22:35;;;;;;;51.92;19.92;;;7.50;70.90;;;;;;7373872;19;20037;-83
2023/02/09 12:25:20;;;;;;;47.00;19.25;;;7.70;70.70;;;;;;7372108;19;20021;-83
2023/02/09 12:28:38;;;;;;;43.45;18.80;;;7.70;70.50;;;;;;7394712;19;20018;-82
2023/02/09 12:31:13;;;;;;;40.83;17.98;;;7.80;70.20;;;;;;7269516;19;2004891;-83
2023/02/09 12:34:12;;;;;;;42.90;18.40;;;7.80;70.20;;;;;;7396153;19;20019;-83
2023/02/09 12:37:17;;;;;;;41.97;18.23;;;7.90;70.40;;;;;;7373779;19;20019;-83
2023/02/09 12:40:30;;;;;;;47.70;18.83;;;8.00;70.40;;;;;;7376963;19;20023;-83
2023/02/09 12:43:26;;;;;;;44.67;18.70;;;8.10;69.10;;;;;;7276997;19;2004570;-83
2023/02/09 12:46:20;;;;;;;43.83;18.10;;;8.10;68.50;;;;;;7394454;19;20022;-84
2023/02/09 12:49:16;;;;;;;53.90;18.17;;;8.10;68.70;;;;;;7371629;19;20093;-83
2023/02/09 12:52:13;;;;;;;44.30;19.23;;;8.20;68.50;;;;;;7373208;19;20040;-84
2023/02/09 12:54:46;;;;;;;40.92;17.75;;;8.30;68.10;;;;;;7375520;19;20098;-84
2023/02/09 12:57:53;;;;;;;40.03;16.05;;;8.40;66.80;;;;;;7377716;19;20617;-83
2023/02/09 13:00:43;;;;;;;43.30;17.15;;;8.40;66.20;;;;;;7379139;19;20029;-83
2023/02/09 13:03:15;;;;;;;43.88;17.73;;;8.40;65.30;;;;;;7370698;19;20462;-82
2023/02/09 13:05:46;;;;;;;41.10;16.90;;;8.50;65.30;;;;;;7370066;19;20018;-83
2023/02/09 13:08:21;;;;;;;43.70;18.67;;;8.60;65.40;;;;;;7370613;19;20007;-84
2023/02/09 13:10:58;;;;;;;39.85;17.17;;;8.50;64.70;;;;;;7375081;19;20054;-83
2023/02/09 13:13:35;;;;;;;36.03;16.63;;;8.60;65.00;;;;;;7372481;19;20428;-82
2023/02/09 13:16:32;;;;;;;44.50;17.73;;;8.80;64.20;;;;;;7372461;19;20018;-81